createdAt,value
2023-05-10T00:01:35.636Z,11.20
2023-05-10T00:04:03.782Z,11.20
2023-05-10T00:06:32.466Z,11.20
2023-05-10T00:09:00.633Z,11.30
2023-05-10T00:11:30.242Z,11.30
2023-05-10T00:13:58.406Z,11.30
2023-05-10T00:16:26.663Z,11.20
2023-05-10T00:18:54.810Z,11.30
2023-05-10T00:21:22.957Z,11.30
2023-05-10T00:23:51.139Z,11.40
2023-05-10T00:26:19.240Z,11.40
2023-05-10T00:28:48.708Z,11.40
2023-05-10T00:31:16.897Z,11.40
2023-05-10T00:33:45.062Z,11.30
2023-05-10T00:36:13.256Z,11.30
2023-05-10T00:38:41.509Z,11.20
2023-05-10T00:41:10.109Z,11.30
2023-05-10T00:43:38.306Z,11.20
2023-05-10T00:46:08.278Z,11.20
2023-05-10T00:48:37.228Z,11.20
2023-05-10T00:51:05.506Z,11.20
2023-05-10T00:53:34.151Z,11.20
2023-05-10T00:56:02.317Z,11.30
2023-05-10T00:58:31.886Z,11.20
2023-05-10T01:01:00.619Z,11.10
2023-05-10T01:03:30.342Z,11.10
2023-05-10T01:05:58.614Z,11.10
2023-05-10T01:08:27.051Z,11.20
2023-05-10T01:10:55.592Z,11.20
2023-05-10T01:13:31.882Z,11.20
2023-05-10T01:16:00.748Z,11.20
2023-05-10T01:18:31.250Z,11.20
2023-05-10T01:21:04.125Z,11.20
2023-05-10T01:23:43.958Z,11.20
2023-05-10T01:26:21.656Z,11.10
2023-05-10T01:29:04.670Z,11.10
2023-05-10T01:31:37.137Z,11.10
2023-05-10T01:34:09.088Z,11.10
2023-05-10T01:36:41.650Z,11.00
2023-05-10T01:39:11.990Z,11.10
2023-05-10T01:41:43.430Z,11.10
2023-05-10T01:44:15.802Z,11.00
2023-05-10T01:46:44.190Z,11.00
2023-05-10T01:49:16.961Z,10.90
2023-05-10T01:51:47.199Z,10.90
2023-05-10T01:54:16.062Z,11.00
2023-05-10T01:56:45.869Z,11.00
2023-05-10T01:59:15.537Z,11.00
2023-05-10T02:01:44.857Z,10.90
2023-05-10T02:04:16.379Z,11.00
2023-05-10T02:06:45.935Z,11.00
2023-05-10T02:09:15.327Z,11.00
2023-05-10T02:11:44.940Z,10.90
2023-05-10T02:14:13.417Z,10.80
2023-05-10T02:16:42.512Z,10.80
2023-05-10T02:19:11.216Z,10.80
2023-05-10T02:21:41.290Z,10.80
2023-05-10T02:24:10.322Z,10.70
2023-05-10T02:26:40.274Z,10.70
2023-05-10T02:29:08.761Z,10.70
2023-05-10T02:31:37.189Z,10.70
2023-05-10T02:34:06.200Z,10.60
2023-05-10T02:36:34.999Z,10.60
2023-05-10T02:39:05.511Z,10.60
2023-05-10T02:41:34.764Z,10.60
2023-05-10T02:44:03.821Z,10.60
2023-05-10T02:46:32.392Z,10.60
2023-05-10T02:49:00.645Z,10.70
2023-05-10T02:51:32.543Z,10.60
2023-05-10T02:54:03.818Z,10.60
2023-05-10T02:56:34.949Z,10.60
2023-05-10T02:59:03.028Z,10.60
2023-05-10T03:01:31.333Z,10.60
2023-05-10T03:03:59.496Z,10.50
2023-05-10T03:06:27.630Z,10.40
2023-05-10T03:08:55.775Z,10.30
2023-05-10T03:11:34.020Z,10.30
2023-05-10T03:14:10.047Z,10.40
2023-05-10T03:16:44.940Z,10.40
2023-05-10T03:19:17.515Z,10.50
2023-05-10T03:21:49.413Z,10.40
2023-05-10T03:24:18.450Z,10.40
2023-05-10T03:26:47.397Z,10.40
2023-05-10T03:29:17.514Z,10.40
2023-05-10T03:31:45.904Z,10.40
2023-05-10T03:34:14.067Z,10.40
2023-05-10T03:36:42.176Z,10.60
2023-05-10T03:39:11.740Z,10.50
2023-05-10T03:41:39.897Z,10.60
2023-05-10T03:44:08.036Z,10.50
2023-05-10T03:46:37.569Z,10.50
2023-05-10T03:49:05.685Z,10.60
2023-05-10T03:51:33.954Z,10.60
2023-05-10T03:54:02.133Z,10.60
2023-05-10T03:56:31.033Z,10.50
2023-05-10T03:58:59.128Z,10.50
2023-05-10T04:01:27.405Z,10.50
2023-05-10T04:03:57.011Z,10.50
2023-05-10T04:06:25.305Z,10.50
2023-05-10T04:08:53.571Z,10.40
2023-05-10T04:11:22.859Z,10.50
2023-05-10T04:13:51.050Z,10.60
2023-05-10T04:16:19.548Z,10.70
2023-05-10T04:18:47.757Z,10.70
2023-05-10T04:21:17.268Z,10.80
2023-05-10T04:23:45.501Z,10.90
2023-05-10T04:26:13.740Z,11.00
2023-05-10T04:28:41.969Z,11.10
2023-05-10T04:31:11.019Z,11.30
2023-05-10T04:33:39.316Z,11.40
2023-05-10T04:36:07.728Z,11.50
2023-05-10T04:38:37.318Z,11.60
2023-05-10T04:41:06.008Z,11.60
2023-05-10T04:43:34.152Z,11.70
2023-05-10T04:46:02.834Z,11.80
2023-05-10T04:48:31.108Z,11.90
2023-05-10T04:50:59.249Z,12.00
2023-05-10T04:53:27.414Z,12.10
2023-05-10T04:55:57.114Z,12.20
2023-05-10T04:58:25.238Z,12.30
2023-05-10T05:00:53.408Z,12.50
2023-05-10T05:03:21.687Z,12.60
2023-05-10T05:05:49.911Z,12.70
2023-05-10T05:08:18.115Z,12.80
2023-05-10T05:10:46.244Z,12.80
2023-05-10T05:13:15.843Z,12.70
2023-05-10T05:15:44.078Z,12.70
2023-05-10T05:18:12.370Z,12.70
2023-05-10T05:20:40.787Z,12.70
2023-05-10T05:23:08.961Z,12.80
2023-05-10T05:25:37.383Z,12.70
2023-05-10T05:28:05.719Z,12.70
2023-05-10T05:30:35.310Z,12.70
2023-05-10T05:33:03.545Z,12.90
2023-05-10T05:35:31.821Z,13.10
2023-05-10T05:38:00.020Z,13.40
2023-05-10T05:40:28.231Z,13.70
2023-05-10T05:42:56.705Z,14.00
2023-05-10T05:45:24.885Z,14.30
2023-05-10T05:47:54.463Z,14.40
2023-05-10T05:50:22.715Z,14.70
2023-05-10T05:52:50.878Z,14.90
2023-05-10T05:55:19.392Z,14.90
2023-05-10T05:57:47.679Z,15.10
2023-05-10T06:00:16.279Z,15.40
2023-05-10T06:02:44.712Z,15.60
2023-05-10T06:05:15.104Z,15.80
2023-05-10T06:07:43.836Z,15.80
2023-05-10T06:10:12.333Z,15.80
2023-05-10T06:12:40.486Z,16.00
2023-05-10T06:15:09.285Z,16.00
2023-05-10T06:17:37.619Z,16.00
2023-05-10T06:20:06.206Z,16.20
2023-05-10T06:22:35.784Z,16.30
2023-05-10T06:25:04.015Z,16.30
2023-05-10T06:27:32.221Z,16.40
2023-05-10T06:30:11.812Z,16.00
2023-05-10T06:32:41.447Z,16.10
2023-05-10T06:35:10.243Z,16.60
2023-05-10T06:37:39.764Z,16.20
2023-05-10T06:40:08.737Z,16.70
2023-05-10T06:42:36.857Z,16.90
2023-05-10T06:45:06.281Z,17.10
2023-05-10T06:47:36.544Z,17.00
2023-05-10T06:50:07.677Z,16.80
2023-05-10T06:52:35.843Z,17.10
2023-05-10T06:55:05.783Z,17.10
2023-05-10T06:57:34.378Z,17.20
2023-05-10T07:00:02.630Z,17.50
2023-05-10T07:02:30.858Z,17.80
2023-05-10T07:05:01.640Z,18.00
2023-05-10T07:07:31.236Z,18.20
2023-05-10T07:09:59.545Z,18.40
2023-05-10T07:12:29.785Z,18.60
2023-05-10T07:14:58.027Z,17.90
2023-05-10T07:17:26.467Z,17.40
2023-05-10T07:19:54.722Z,18.20
2023-05-10T07:22:23.014Z,18.80
2023-05-10T07:24:51.197Z,19.20
2023-05-10T07:27:19.331Z,18.80
2023-05-10T07:29:48.877Z,19.10
2023-05-10T07:32:17.109Z,19.50
2023-05-10T07:34:45.186Z,19.90
2023-05-10T07:37:13.538Z,20.50
2023-05-10T07:39:41.654Z,20.70
2023-05-10T07:42:09.812Z,21.00
2023-05-10T07:44:37.987Z,20.80
2023-05-10T07:47:07.509Z,20.30
2023-05-10T07:49:36.617Z,19.60
2023-05-10T07:52:05.432Z,19.70
2023-05-10T07:54:34.740Z,19.40
2023-05-10T07:57:02.996Z,19.80
2023-05-10T07:59:31.300Z,19.20
2023-05-10T08:01:59.511Z,19.00
2023-05-10T08:04:29.186Z,19.80
2023-05-10T08:06:57.394Z,19.90
2023-05-10T08:09:25.628Z,20.60
2023-05-10T08:11:53.730Z,20.90
2023-05-10T08:14:21.804Z,21.10
2023-05-10T08:16:49.948Z,21.40
2023-05-10T08:19:19.996Z,22.20
2023-05-10T08:21:49.538Z,22.60
2023-05-10T08:24:17.751Z,23.20
2023-05-10T08:26:45.965Z,23.50
2023-05-10T08:29:14.090Z,23.30
2023-05-10T08:31:42.319Z,23.70
2023-05-10T08:34:10.634Z,23.00
2023-05-10T08:36:38.800Z,23.30
2023-05-10T08:39:16.140Z,23.20
2023-05-10T08:41:48.952Z,23.30
2023-05-10T08:44:17.620Z,23.60
2023-05-10T08:46:48.016Z,23.40
2023-05-10T08:49:19.192Z,24.00
2023-05-10T08:51:50.906Z,24.10
2023-05-10T08:54:20.660Z,24.20
2023-05-10T08:56:49.828Z,23.40
2023-05-10T08:59:18.213Z,22.90
2023-05-10T09:01:46.997Z,23.50
2023-05-10T09:04:15.217Z,24.20
2023-05-10T09:06:43.501Z,24.60
2023-05-10T09:09:12.022Z,24.80
2023-05-10T09:11:41.539Z,25.20
2023-05-10T09:14:10.469Z,25.20
2023-05-10T09:16:38.649Z,25.20
2023-05-10T09:19:07.986Z,24.70
2023-05-10T09:21:37.711Z,25.40
2023-05-10T09:24:06.625Z,25.30
2023-05-10T09:26:36.262Z,25.60
2023-05-10T09:29:07.400Z,25.80
2023-05-10T09:31:48.762Z,24.60
2023-05-10T09:34:20.288Z,24.30
2023-05-10T09:36:55.561Z,24.70
2023-05-10T09:39:31.681Z,24.20
2023-05-10T09:42:00.038Z,24.20
2023-05-10T09:44:29.596Z,22.30
2023-05-10T09:46:58.060Z,23.20
2023-05-10T09:49:26.234Z,23.90
2023-05-10T09:52:04.664Z,23.90
2023-05-10T09:54:32.988Z,24.40
2023-05-10T09:57:01.625Z,24.50
2023-05-10T09:59:31.299Z,25.10
2023-05-10T10:01:59.967Z,25.50
2023-05-10T10:04:28.387Z,24.90
2023-05-10T10:07:03.667Z,26.10
2023-05-10T10:09:32.299Z,26.90
2023-05-10T10:12:01.097Z,27.20
2023-05-10T10:14:29.592Z,27.50
2023-05-10T10:17:08.048Z,27.00
2023-05-10T10:19:37.665Z,27.30
2023-05-10T10:22:06.708Z,27.80
2023-05-10T10:24:35.139Z,27.90
2023-05-10T10:27:07.811Z,26.70
2023-05-10T10:29:38.788Z,27.20
2023-05-10T10:32:13.060Z,27.60
2023-05-10T10:34:41.643Z,27.70
2023-05-10T10:37:09.742Z,28.60
2023-05-10T10:39:38.013Z,28.60
2023-05-10T10:42:06.356Z,28.10
2023-05-10T10:44:42.568Z,28.60
2023-05-10T10:47:30.027Z,27.40
2023-05-10T10:50:05.736Z,28.50
2023-05-10T10:52:35.058Z,28.80
2023-05-10T10:55:04.911Z,28.90
2023-05-10T10:57:34.082Z,29.20
2023-05-10T11:00:21.286Z,28.70
2023-05-10T11:02:51.217Z,28.60
2023-05-10T11:05:26.049Z,28.30
2023-05-10T11:07:54.872Z,28.50
2023-05-10T11:10:23.229Z,27.90
2023-05-10T11:12:55.038Z,26.80
2023-05-10T11:15:30.392Z,27.20
2023-05-10T11:18:00.028Z,28.10
2023-05-10T11:20:34.187Z,27.70
2023-05-10T11:23:13.056Z,27.90
2023-05-10T11:25:43.338Z,29.00
2023-05-10T11:28:11.675Z,28.50
2023-05-10T11:30:40.434Z,27.00
2023-05-10T11:33:10.423Z,28.20
2023-05-10T11:35:43.595Z,28.70
2023-05-10T11:38:12.482Z,28.30
2023-05-10T11:40:41.242Z,28.80
2023-05-10T11:43:10.443Z,29.70
2023-05-10T11:45:39.352Z,30.20
2023-05-10T11:48:07.654Z,30.90
2023-05-10T11:50:37.169Z,31.10
2023-05-10T11:53:05.322Z,30.50
2023-05-10T11:55:35.516Z,29.80
2023-05-10T11:58:04.301Z,29.60
2023-05-10T12:00:32.661Z,30.10
2023-05-10T12:03:02.931Z,29.40
2023-05-10T12:05:33.683Z,29.50
2023-05-10T12:08:15.977Z,29.30
2023-05-10T12:10:44.113Z,29.20
2023-05-10T12:13:16.254Z,30.10
2023-05-10T12:15:44.851Z,30.70
2023-05-10T12:18:13.285Z,30.70
2023-05-10T12:20:42.149Z,30.10
2023-05-10T12:23:10.916Z,29.70
2023-05-10T12:25:41.038Z,30.20
2023-05-10T12:28:10.885Z,31.00
2023-05-10T12:30:39.684Z,30.70
2023-05-10T12:33:10.026Z,29.50
2023-05-10T12:35:45.959Z,29.90
2023-05-10T12:38:27.033Z,30.60
2023-05-10T12:40:56.636Z,31.50
2023-05-10T12:43:25.520Z,31.60
2023-05-10T12:45:54.154Z,32.10
2023-05-10T12:48:22.730Z,33.00
2023-05-10T12:50:50.890Z,33.40
2023-05-10T12:53:19.245Z,31.50
2023-05-10T12:55:47.479Z,30.80
2023-05-10T12:58:27.841Z,30.10
2023-05-10T13:01:04.115Z,30.10
2023-05-10T13:03:32.338Z,29.30
2023-05-10T13:06:00.500Z,28.20
2023-05-10T13:08:30.712Z,28.30
2023-05-10T13:10:58.833Z,28.50
2023-05-10T13:13:28.372Z,28.60
2023-05-10T13:15:56.566Z,28.70
2023-05-10T13:18:25.543Z,28.00
2023-05-10T13:20:53.852Z,28.70
2023-05-10T13:23:22.046Z,29.00
2023-05-10T13:25:50.190Z,29.30
2023-05-10T13:28:18.315Z,29.70
2023-05-10T13:30:47.857Z,29.00
2023-05-10T13:33:16.049Z,27.50
2023-05-10T13:35:44.117Z,27.80
2023-05-10T13:38:12.367Z,27.80
2023-05-10T13:40:40.512Z,27.30
2023-05-10T13:43:08.676Z,28.20
2023-05-10T13:45:36.833Z,27.10
2023-05-10T13:48:06.846Z,27.80
2023-05-10T13:50:35.035Z,27.50
2023-05-10T13:53:03.398Z,27.60
2023-05-10T13:55:31.624Z,27.60
2023-05-10T13:57:59.732Z,26.50
2023-05-10T14:00:28.480Z,26.60
2023-05-10T14:02:56.741Z,27.50
2023-05-10T14:05:26.806Z,28.10
2023-05-10T14:07:55.150Z,28.30
2023-05-10T14:10:23.272Z,29.00
2023-05-10T14:12:51.570Z,29.40
2023-05-10T14:15:19.877Z,29.20
2023-05-10T14:17:48.144Z,28.60
2023-05-10T14:20:16.291Z,28.30
2023-05-10T14:22:45.825Z,28.00
2023-05-10T14:25:14.344Z,27.50
2023-05-10T14:27:42.574Z,26.90
2023-05-10T14:30:11.162Z,27.10
2023-05-10T14:32:39.763Z,26.90
2023-05-10T14:35:09.008Z,26.80
2023-05-10T14:37:38.943Z,27.40
2023-05-10T14:40:10.175Z,27.40
2023-05-10T14:42:38.324Z,27.30
2023-05-10T14:45:07.049Z,26.00
2023-05-10T14:47:35.249Z,24.30
2023-05-10T14:50:03.429Z,24.00
2023-05-10T14:52:34.278Z,24.10
2023-05-10T14:55:02.675Z,24.40
2023-05-10T14:57:32.281Z,24.50
2023-05-10T15:00:00.406Z,24.80
2023-05-10T15:02:29.135Z,25.20
2023-05-10T15:07:51.194Z,25.20
2023-05-10T15:10:19.751Z,24.40
2023-05-10T15:12:49.271Z,24.30
2023-05-10T15:15:17.749Z,24.20
2023-05-10T15:17:46.832Z,23.30
2023-05-10T15:20:15.039Z,22.90
2023-05-10T15:22:43.157Z,22.80
2023-05-10T15:25:11.536Z,22.20
2023-05-10T15:27:39.667Z,22.10
2023-05-10T15:30:10.013Z,22.30
2023-05-10T15:32:38.252Z,22.70
2023-05-10T15:35:06.901Z,22.10
2023-05-10T15:37:35.008Z,21.90
2023-05-10T15:40:05.142Z,22.40
2023-05-10T15:42:33.594Z,22.70
2023-05-10T15:45:01.762Z,22.90
2023-05-10T15:47:31.826Z,22.90
2023-05-10T15:49:59.989Z,23.20
2023-05-10T15:52:28.186Z,23.60
2023-05-10T15:54:56.405Z,23.60
2023-05-10T15:57:24.497Z,23.70
2023-05-10T15:59:52.896Z,23.30
2023-05-10T16:02:22.499Z,23.40
2023-05-10T16:04:52.684Z,23.40
2023-05-10T16:07:20.817Z,23.00
2023-05-10T16:09:49.626Z,22.50
2023-05-10T16:12:17.816Z,22.00
2023-05-10T16:14:46.000Z,21.80
2023-05-10T16:17:15.213Z,21.20
2023-05-10T16:19:43.456Z,21.10
2023-05-10T16:22:13.013Z,20.90
2023-05-10T16:24:41.302Z,20.90
2023-05-10T16:27:09.901Z,20.90
2023-05-10T16:29:38.102Z,20.80
2023-05-10T16:32:07.000Z,20.90
2023-05-10T16:34:35.184Z,20.90
2023-05-10T16:37:03.326Z,20.70
2023-05-10T16:39:32.873Z,20.70
2023-05-10T16:42:01.067Z,20.70
2023-05-10T16:44:29.235Z,20.70
2023-05-10T16:46:57.384Z,20.70
2023-05-10T16:49:26.484Z,20.50
2023-05-10T16:51:54.639Z,20.40
2023-05-10T16:54:23.067Z,20.10
2023-05-10T16:56:52.591Z,20.10
2023-05-10T16:59:20.728Z,19.60
2023-05-10T17:01:48.972Z,19.40
2023-05-10T17:04:17.774Z,19.20
2023-05-10T17:06:45.936Z,19.00
2023-05-10T17:09:14.036Z,19.00
2023-05-10T17:11:42.615Z,18.90
2023-05-10T17:14:12.316Z,18.80
2023-05-10T17:16:40.454Z,18.80
2023-05-10T17:19:09.139Z,18.70
2023-05-10T17:21:37.469Z,18.60
2023-05-10T17:24:05.796Z,18.60
2023-05-10T17:26:34.597Z,18.50
2023-05-10T17:29:02.800Z,18.60
2023-05-10T17:31:33.015Z,18.40
2023-05-10T17:34:02.689Z,18.40
2023-05-10T17:36:33.356Z,18.20
2023-05-10T17:39:01.847Z,18.10
2023-05-10T17:41:29.973Z,18.10
2023-05-10T17:43:58.064Z,18.00
2023-05-10T17:46:26.312Z,17.80
2023-05-10T17:48:55.766Z,17.70
2023-05-10T17:51:23.869Z,17.70
2023-05-10T17:53:52.094Z,17.60
2023-05-10T17:56:20.256Z,17.50
2023-05-10T17:58:48.350Z,17.40
2023-05-10T18:01:16.662Z,17.30
2023-05-10T18:03:44.852Z,17.20
2023-05-10T18:06:14.427Z,17.00
2023-05-10T18:08:42.675Z,16.90
2023-05-10T18:11:10.808Z,16.80
2023-05-10T18:13:39.016Z,16.70
2023-05-10T18:16:08.714Z,16.70
2023-05-10T18:18:36.978Z,16.50
2023-05-10T18:21:05.203Z,16.50
2023-05-10T18:23:35.032Z,16.40
2023-05-10T18:26:03.302Z,16.30
2023-05-10T18:28:31.489Z,16.20
2023-05-10T18:30:59.602Z,16.00
2023-05-10T18:33:27.770Z,15.90
2023-05-10T18:35:55.979Z,15.80
2023-05-10T18:38:24.125Z,15.60
2023-05-10T18:40:53.615Z,15.50
2023-05-10T18:43:21.789Z,15.30
2023-05-10T18:45:50.932Z,15.20
2023-05-10T18:48:19.249Z,15.10
2023-05-10T18:50:47.388Z,15.00
2023-05-10T18:53:15.671Z,15.00
2023-05-10T18:55:44.850Z,15.00
2023-05-10T18:58:14.454Z,14.90
2023-05-10T19:00:43.302Z,14.80
2023-05-10T19:03:11.492Z,14.80
2023-05-10T19:05:39.721Z,14.80
2023-05-10T19:08:07.916Z,14.70
2023-05-10T19:11:34.899Z,14.60
2023-05-10T19:14:03.347Z,14.50
2023-05-10T19:16:31.483Z,14.50
2023-05-10T19:18:59.886Z,14.40
2023-05-10T19:21:28.231Z,14.40
2023-05-10T19:23:57.211Z,14.30
2023-05-10T19:26:25.426Z,14.30
2023-05-10T19:28:55.560Z,14.20
2023-05-10T19:31:24.173Z,14.20
2023-05-10T19:33:52.911Z,14.20
2023-05-10T19:36:21.099Z,14.10
2023-05-10T19:38:49.584Z,14.10
2023-05-10T19:41:17.768Z,14.10
2023-05-10T19:43:45.924Z,14.10
2023-05-10T19:46:17.209Z,14.20
2023-05-10T19:48:50.004Z,14.30
2023-05-10T19:51:18.562Z,14.30
2023-05-10T19:53:46.981Z,14.30
2023-05-10T19:56:16.443Z,14.30
2023-05-10T19:58:44.651Z,14.40
2023-05-10T20:01:12.958Z,14.40
2023-05-10T20:03:42.532Z,14.50
2023-05-10T20:06:10.897Z,14.50
2023-05-10T20:08:39.081Z,14.50
2023-05-10T20:11:07.221Z,14.60
2023-05-10T20:13:35.328Z,14.60
2023-05-10T20:16:05.052Z,14.70
2023-05-10T20:18:33.313Z,14.70
2023-05-10T20:21:02.869Z,14.80
2023-05-10T20:23:31.192Z,14.90
2023-05-10T20:25:59.499Z,14.90
2023-05-10T20:28:28.267Z,14.80
2023-05-10T20:30:56.861Z,14.80
2023-05-10T20:33:25.305Z,14.90
2023-05-10T20:35:53.419Z,14.90
2023-05-10T20:38:22.925Z,14.90
2023-05-10T20:40:51.184Z,14.90
2023-05-10T20:43:21.222Z,14.90
2023-05-10T20:45:49.630Z,14.90
2023-05-10T20:48:18.700Z,14.90
2023-05-10T20:50:46.830Z,15.00
2023-05-10T20:53:15.383Z,14.90
2023-05-10T20:55:44.866Z,14.90
2023-05-10T20:58:12.987Z,14.90
2023-05-10T21:00:41.231Z,14.90
2023-05-10T21:03:09.522Z,14.90
2023-05-10T21:05:37.640Z,14.90
2023-05-10T21:08:05.851Z,14.90
2023-05-10T21:10:34.196Z,15.00
2023-05-10T21:13:03.797Z,15.00
2023-05-10T21:15:31.932Z,15.00
2023-05-10T21:18:00.249Z,14.90
2023-05-10T21:20:28.450Z,14.90
2023-05-10T21:22:56.872Z,14.90
2023-05-10T21:25:25.449Z,14.80
2023-05-10T21:27:53.622Z,14.80
2023-05-10T21:30:23.274Z,14.80
2023-05-10T21:32:51.835Z,14.70
2023-05-10T21:35:20.059Z,14.60
2023-05-10T21:37:48.171Z,14.60
2023-05-10T21:40:16.722Z,14.60
2023-05-10T21:42:49.521Z,14.50
2023-05-10T21:45:18.104Z,14.50
2023-05-10T21:47:47.697Z,14.40
2023-05-10T21:50:15.977Z,14.30
2023-05-10T21:52:44.285Z,14.20
2023-05-10T21:55:12.430Z,14.00
2023-05-10T21:57:40.661Z,14.00
2023-05-10T22:00:10.098Z,14.00
2023-05-10T22:02:38.368Z,14.00
2023-05-10T22:05:08.238Z,14.00
2023-05-10T22:07:36.407Z,13.80
2023-05-10T22:10:05.543Z,13.80
2023-05-10T22:12:33.674Z,13.70
2023-05-10T22:15:10.488Z,13.80
2023-05-10T22:17:39.950Z,13.70
2023-05-10T22:20:10.411Z,13.80
2023-05-10T22:22:38.653Z,13.80
2023-05-10T22:25:07.285Z,13.70
2023-05-10T22:27:35.592Z,13.50
2023-05-10T22:30:03.858Z,13.60
2023-05-10T22:32:32.063Z,13.60
2023-05-10T22:35:00.246Z,13.50
2023-05-10T22:37:29.797Z,13.60
2023-05-10T22:39:57.925Z,13.60
2023-05-10T22:42:26.067Z,13.50
2023-05-10T22:44:54.370Z,13.40
2023-05-10T22:47:22.538Z,13.40
2023-05-10T22:49:50.717Z,13.40
2023-05-10T22:52:18.885Z,13.40
2023-05-10T22:54:48.427Z,13.30
2023-05-10T22:57:17.162Z,13.30
2023-05-10T22:59:45.341Z,13.10
2023-05-10T23:02:14.171Z,13.20
2023-05-10T23:04:42.383Z,13.00
2023-05-10T23:07:10.591Z,12.90
2023-05-10T23:09:38.707Z,12.90
2023-05-10T23:12:08.243Z,13.00
2023-05-10T23:14:36.407Z,13.10
2023-05-10T23:17:04.523Z,13.20
2023-05-10T23:19:32.647Z,13.30
2023-05-10T23:22:00.818Z,13.40
2023-05-10T23:24:29.065Z,13.50
2023-05-10T23:26:57.286Z,13.50
2023-05-10T23:29:26.751Z,13.50
2023-05-10T23:31:54.975Z,13.50
2023-05-10T23:34:23.185Z,13.50
2023-05-10T23:36:51.355Z,13.40
2023-05-10T23:39:19.512Z,13.30
2023-05-10T23:41:47.877Z,13.30
2023-05-10T23:44:16.561Z,13.30
2023-05-10T23:46:46.026Z,13.30
2023-05-10T23:49:14.202Z,13.30
2023-05-10T23:51:42.315Z,13.20
2023-05-10T23:54:10.540Z,13.20
2023-05-10T23:56:38.727Z,13.30
2023-05-10T23:59:06.852Z,13.20
